Time;durP1;ratioP1;P1;durP2;ratioP2;P2;SDS_P1;SDS_P2;PMS_P1;PMS_P2;Temp;Humidity;BMP_temperature;BMP_pressure;BME280_temperature;BME280_humidity;BME280_pressure;Samples;Min_cycle;Max_cycle;Signal;HPM_P1;HPM_P2
2022/12/20 00:01:46;;;;;;;2.47;1.90;;;13.50;99.90;;;;;;5065198;28;20273;-31
2022/12/20 00:04:13;;;;;;;2.17;1.90;;;13.50;99.90;;;;;;5065585;28;20208;-31
2022/12/20 00:06:40;;;;;;;4.93;1.80;;;13.50;99.90;;;;;;5065287;28;20215;-31
2022/12/20 00:09:08;;;;;;;4.03;2.20;;;13.50;99.90;;;;;;5063694;28;20256;-31
2022/12/20 00:11:43;;;;;;;2.70;2.00;;;13.50;99.90;;;;;;5044630;28;20207;-31
2022/12/20 00:14:12;;;;;;;4.20;1.80;;;13.50;99.90;;;;;;5045314;28;20343;-31
2022/12/20 00:16:40;;;;;;;3.33;2.10;;;13.50;99.90;;;;;;5045014;28;20417;-30
2022/12/20 00:19:11;;;;;;;3.20;1.80;;;13.60;99.90;;;;;;5045189;28;20583;-31
2022/12/20 00:21:40;;;;;;;2.37;1.70;;;13.60;99.90;;;;;;5044918;28;20205;-31
2022/12/20 00:24:09;;;;;;;3.27;2.00;;;13.60;99.90;;;;;;5051469;28;20239;-31
2022/12/20 00:26:36;;;;;;;4.13;2.20;;;13.60;99.90;;;;;;5063425;28;20222;-31
2022/12/20 00:29:06;;;;;;;3.23;1.90;;;13.60;99.90;;;;;;5054211;28;20220;-32
2022/12/20 00:31:36;;;;;;;3.00;1.83;;;13.60;99.90;;;;;;5048043;28;20277;-31
2022/12/20 00:34:04;;;;;;;3.40;1.70;;;13.60;99.90;;;;;;5048918;28;20227;-31
2022/12/20 00:36:32;;;;;;;3.03;2.00;;;13.60;99.90;;;;;;5048721;28;20675;-31
2022/12/20 00:39:02;;;;;;;4.80;2.07;;;13.60;99.90;;;;;;5048894;28;20219;-31
2022/12/20 00:41:32;;;;;;;3.73;2.00;;;13.60;99.90;;;;;;5047678;28;20250;-31
2022/12/20 00:44:02;;;;;;;2.47;1.97;;;13.60;99.90;;;;;;5059239;28;20204;-31
2022/12/20 00:46:34;;;;;;;5.30;2.27;;;13.70;99.90;;;;;;5048486;28;20212;-31
2022/12/20 00:49:01;;;;;;;4.17;2.03;;;13.70;99.90;;;;;;5048961;28;20206;-31
2022/12/20 00:51:33;;;;;;;3.00;2.10;;;13.70;99.90;;;;;;5048178;28;20263;-31
2022/12/20 00:54:00;;;;;;;2.27;1.70;;;13.70;99.90;;;;;;5048635;28;20323;-31
2022/12/20 00:56:31;;;;;;;2.90;1.93;;;13.70;99.90;;;;;;5047655;28;20259;-31
2022/12/20 00:59:03;;;;;;;2.80;1.60;;;13.70;99.90;;;;;;5059913;28;20261;-31
2022/12/20 01:01:34;;;;;;;3.70;2.00;;;13.70;99.90;;;;;;5054944;28;20679;-31
2022/12/20 01:04:04;;;;;;;3.00;1.73;;;13.70;99.90;;;;;;5059957;28;20875;-31
2022/12/20 01:06:31;;;;;;;3.10;1.83;;;13.80;99.90;;;;;;5068222;28;20255;-31
2022/12/20 01:08:59;;;;;;;2.93;1.90;;;13.70;99.90;;;;;;5068116;28;20247;-30
2022/12/20 01:11:32;;;;;;;3.00;1.70;;;13.70;99.90;;;;;;5067585;28;20286;-31
2022/12/20 01:14:03;;;;;;;3.00;1.67;;;13.70;99.90;;;;;;5068029;28;20220;-30
2022/12/20 01:16:50;;;;;;;3.63;2.13;;;13.70;99.90;;;;;;5068035;28;20640;-30
2022/12/20 01:19:18;;;;;;;3.43;1.90;;;13.70;99.90;;;;;;5062754;28;20218;-31
2022/12/20 01:21:45;;;;;;;4.00;1.80;;;13.70;99.90;;;;;;5065356;28;20199;-31
2022/12/20 01:24:19;;;;;;;3.37;2.00;;;13.70;99.90;;;;;;5065684;28;20219;-31
2022/12/20 01:26:49;;;;;;;2.70;2.27;;;13.70;99.90;;;;;;5066018;28;20207;-31
2022/12/20 01:29:23;;;;;;;2.30;1.80;;;13.70;99.90;;;;;;5063602;28;20218;-31
2022/12/20 01:31:52;;;;;;;3.23;2.03;;;13.70;99.90;;;;;;5065541;28;20230;-30
2022/12/20 01:34:22;;;;;;;3.13;2.27;;;13.60;99.90;;;;;;5063969;28;20220;-33
2022/12/20 01:36:49;;;;;;;4.07;2.10;;;13.60;99.90;;;;;;5049275;28;20640;-30
2022/12/20 01:39:18;;;;;;;2.93;2.03;;;13.60;99.90;;;;;;5067404;28;20253;-31
2022/12/20 01:41:48;;;;;;;2.53;1.93;;;13.60;99.90;;;;;;5066140;28;20290;-30
2022/12/20 01:44:18;;;;;;;6.23;2.33;;;13.60;99.90;;;;;;5067580;28;20731;-30
2022/12/20 01:46:48;;;;;;;2.57;1.90;;;13.60;99.90;;;;;;5067313;28;20234;-31
2022/12/20 01:49:23;;;;;;;4.10;2.10;;;13.60;99.90;;;;;;5067756;28;20219;-31
2022/12/20 01:52:14;;;;;;;2.73;1.83;;;13.60;99.90;;;;;;5059378;28;20212;-31
2022/12/20 01:54:59;;;;;;;3.37;2.60;;;13.60;99.90;;;;;;5041352;28;20871;-32
2022/12/20 01:57:35;;;;;;;3.60;1.97;;;13.60;99.90;;;;;;5048066;28;20423;-31
2022/12/20 02:00:07;;;;;;;2.73;2.00;;;13.60;99.90;;;;;;5053348;28;20299;-31
2022/12/20 02:02:40;;;;;;;3.17;1.93;;;13.50;99.90;;;;;;5049251;28;20208;-31
2022/12/20 02:05:13;;;;;;;2.60;1.50;;;13.60;99.90;;;;;;5060608;28;20698;-31
2022/12/20 02:07:43;;;;;;;3.50;1.63;;;13.50;99.90;;;;;;5053430;28;20204;-31
2022/12/20 02:10:12;;;;;;;2.53;2.00;;;13.50;99.90;;;;;;5063981;28;20573;-31
2022/12/20 02:12:47;;;;;;;3.20;1.87;;;13.50;99.90;;;;;;5060723;28;20214;-31
2022/12/20 02:15:22;;;;;;;3.53;2.00;;;13.50;99.90;;;;;;5050888;28;20219;-31
2022/12/20 02:18:15;;;;;;;2.40;1.70;;;13.50;99.90;;;;;;5050233;28;20207;-31
2022/12/20 02:20:51;;;;;;;2.27;1.93;;;13.50;99.90;;;;;;5047072;28;20185;-31
2022/12/20 02:23:49;;;;;;;3.60;1.90;;;13.50;99.90;;;;;;5048666;28;20762;-31
2022/12/20 02:26:33;;;;;;;1.77;1.63;;;13.50;99.90;;;;;;5051651;28;20318;-31
2022/12/20 02:29:21;;;;;;;2.57;1.70;;;13.50;99.90;;;;;;5055150;28;20739;-31
2022/12/20 02:31:51;;;;;;;3.60;2.00;;;13.50;99.90;;;;;;5065822;28;20203;-31
2022/12/20 02:34:23;;;;;;;2.33;1.97;;;13.50;99.90;;;;;;5065152;28;20670;-31
2022/12/20 02:36:51;;;;;;;3.80;1.90;;;13.50;99.90;;;;;;5064282;28;20684;-32
2022/12/20 02:39:19;;;;;;;3.70;1.70;;;13.60;99.90;;;;;;5051166;28;20204;-30
2022/12/20 02:42:12;;;;;;;2.77;1.80;;;13.50;99.90;;;;;;5060752;28;20220;-31
2022/12/20 02:48:16;;;;;;;6.67;1.83;;;13.50;99.90;;;;;;5056508;28;20227;-31
2022/12/20 02:50:51;;;;;;;2.50;1.77;;;13.60;99.90;;;;;;5060954;28;20330;-31
2022/12/20 02:53:21;;;;;;;2.10;1.77;;;13.60;99.90;;;;;;5065390;28;20635;-31
2022/12/20 02:56:13;;;;;;;5.80;1.60;;;13.50;99.90;;;;;;5062553;28;20200;-31
2022/12/20 02:58:51;;;;;;;2.47;1.83;;;13.50;99.90;;;;;;5065466;28;20615;-31
2022/12/20 03:01:46;;;;;;;5.00;2.00;;;13.50;99.90;;;;;;5046156;28;20254;-31
2022/12/20 03:04:14;;;;;;;2.67;1.80;;;13.50;99.90;;;;;;5041615;28;20207;-31
2022/12/20 03:07:00;;;;;;;3.20;1.70;;;13.60;99.90;;;;;;5045357;28;20317;-31
2022/12/20 03:09:31;;;;;;;3.07;1.90;;;13.60;99.90;;;;;;5045306;28;20196;-31
2022/12/20 03:12:01;;;;;;;1.80;1.60;;;13.60;99.90;;;;;;5062091;28;20602;-31
2022/12/20 03:14:32;;;;;;;3.90;1.87;;;13.60;99.90;;;;;;5065363;28;20265;-31
2022/12/20 03:17:02;;;;;;;2.20;1.73;;;13.60;99.90;;;;;;5063367;28;20204;-31
2022/12/20 03:19:30;;;;;;;2.50;1.57;;;13.60;99.90;;;;;;5063762;28;20219;-31
2022/12/20 03:21:59;;;;;;;2.87;1.73;;;13.60;99.90;;;;;;5065291;28;20275;-31
2022/12/20 03:24:29;;;;;;;1.70;1.40;;;13.60;99.90;;;;;;5063301;28;20207;-31
2022/12/20 03:26:56;;;;;;;2.73;1.77;;;13.60;99.90;;;;;;5064943;28;20215;-31
2022/12/20 03:29:23;;;;;;;3.37;1.60;;;13.60;99.90;;;;;;5064879;28;20226;-30
2022/12/20 03:31:52;;;;;;;4.80;1.47;;;13.60;99.90;;;;;;5065602;28;20203;-31
2022/12/20 03:34:21;;;;;;;2.73;1.73;;;13.60;99.90;;;;;;5048808;28;20219;-31
2022/12/20 03:36:49;;;;;;;2.27;1.60;;;13.60;99.90;;;;;;5060392;28;20192;-31
2022/12/20 03:39:16;;;;;;;1.90;1.60;;;13.60;99.90;;;;;;5063949;28;20208;-31
2022/12/20 03:41:43;;;;;;;2.97;1.93;;;13.60;99.90;;;;;;5064889;28;21121;-31
2022/12/20 03:44:10;;;;;;;2.77;1.60;;;13.60;99.90;;;;;;5053177;28;20208;-31
2022/12/20 03:46:39;;;;;;;2.83;1.53;;;13.60;99.90;;;;;;5056254;28;20235;-31
2022/12/20 03:49:07;;;;;;;3.43;1.67;;;13.60;99.90;;;;;;5050645;28;20195;-31
2022/12/20 03:51:34;;;;;;;3.17;1.67;;;13.60;99.90;;;;;;5062454;28;20304;-31
2022/12/20 03:54:06;;;;;;;3.07;2.10;;;13.60;99.90;;;;;;5064491;28;21025;-31
2022/12/20 03:56:33;;;;;;;3.90;2.00;;;13.60;99.90;;;;;;5064506;28;20223;-31
2022/12/20 03:59:00;;;;;;;2.50;1.40;;;13.60;99.90;;;;;;5062384;28;20230;-30
2022/12/20 04:01:28;;;;;;;4.40;1.90;;;13.60;99.90;;;;;;5062795;28;20234;-31
2022/12/20 04:03:56;;;;;;;2.37;1.40;;;13.60;99.90;;;;;;5065966;28;20749;-31
2022/12/20 04:06:23;;;;;;;2.97;1.50;;;13.60;99.90;;;;;;5067942;28;20685;-31
2022/12/20 04:08:52;;;;;;;2.50;1.50;;;13.60;99.90;;;;;;5053265;28;20270;-31
2022/12/20 04:11:20;;;;;;;2.63;1.57;;;13.60;99.90;;;;;;5048270;28;20293;-31
2022/12/20 04:13:49;;;;;;;4.60;1.50;;;13.70;99.90;;;;;;5049524;28;20573;-31
2022/12/20 04:16:19;;;;;;;3.37;1.67;;;13.60;99.90;;;;;;5047300;28;20577;-32
2022/12/20 04:18:46;;;;;;;2.03;1.37;;;13.70;99.90;;;;;;5047515;28;20286;-31
2022/12/20 04:21:14;;;;;;;3.40;1.73;;;13.70;99.90;;;;;;5049072;28;20593;-31
2022/12/20 04:23:42;;;;;;;2.50;1.50;;;13.70;99.90;;;;;;5048940;28;20761;-31
2022/12/20 04:26:10;;;;;;;2.83;1.87;;;13.70;99.90;;;;;;5048301;28;20277;-31
2022/12/20 04:28:40;;;;;;;2.30;1.50;;;13.70;99.90;;;;;;5051660;28;20635;-31
2022/12/20 04:31:07;;;;;;;2.97;1.70;;;13.70;99.90;;;;;;5048503;28;20572;-31
2022/12/20 04:33:35;;;;;;;3.90;1.50;;;13.60;99.90;;;;;;5047229;28;20212;-31
2022/12/20 04:36:05;;;;;;;2.73;1.70;;;13.60;99.90;;;;;;5048403;28;20216;-31
2022/12/20 04:38:32;;;;;;;4.23;1.90;;;13.60;99.90;;;;;;5058747;28;20215;-31
2022/12/20 04:41:02;;;;;;;2.40;1.40;;;13.60;99.90;;;;;;5067308;28;20689;-31
2022/12/20 04:43:29;;;;;;;3.97;1.87;;;13.60;99.90;;;;;;5048943;28;20246;-31
2022/12/20 04:45:58;;;;;;;3.57;1.80;;;13.60;99.90;;;;;;5046886;28;20204;-31
2022/12/20 04:48:27;;;;;;;2.50;1.60;;;13.60;99.90;;;;;;5048966;28;20527;-31
2022/12/20 04:51:17;;;;;;;2.97;1.53;;;13.60;99.90;;;;;;5048054;28;20240;-31
2022/12/20 04:53:47;;;;;;;3.43;1.40;;;13.60;99.90;;;;;;5047150;28;20660;-30
2022/12/20 04:56:21;;;;;;;2.53;1.63;;;13.60;99.90;;;;;;5047555;28;20219;-30
2022/12/20 04:58:51;;;;;;;2.43;1.50;;;13.50;99.90;;;;;;5048610;28;20200;-31
2022/12/20 05:01:19;;;;;;;6.30;1.70;;;13.50;99.90;;;;;;5049535;28;20255;-31
2022/12/20 05:03:51;;;;;;;2.40;1.60;;;13.50;99.90;;;;;;5064951;28;20235;-31
2022/12/20 05:06:20;;;;;;;3.30;1.40;;;13.50;99.90;;;;;;5068232;28;20601;-31
2022/12/20 05:08:50;;;;;;;2.67;1.30;;;13.50;99.90;;;;;;5067477;28;20212;-31
2022/12/20 05:11:20;;;;;;;2.60;1.37;;;13.50;99.90;;;;;;5067167;28;20227;-30
2022/12/20 05:13:49;;;;;;;2.47;1.60;;;13.50;99.90;;;;;;5066242;28;20721;-31
2022/12/20 05:16:16;;;;;;;3.43;1.40;;;13.40;99.90;;;;;;5055969;28;20220;-30
2022/12/20 05:18:43;;;;;;;2.10;1.50;;;13.40;99.90;;;;;;5048076;28;20199;-31
2022/12/20 05:26:51;;;;;;;3.40;1.50;;;13.40;99.90;;;;;;5066931;28;20211;-31
2022/12/20 05:29:21;;;;;;;2.90;1.60;;;13.40;99.90;;;;;;5066752;28;20203;-31
2022/12/20 05:31:48;;;;;;;2.70;1.10;;;13.40;99.90;;;;;;5065758;28;20626;-30
2022/12/20 05:34:16;;;;;;;1.40;1.10;;;13.40;99.90;;;;;;5066350;28;20227;-31
2022/12/20 05:36:46;;;;;;;1.83;1.30;;;13.40;99.90;;;;;;5067443;28;20242;-31
2022/12/20 05:39:13;;;;;;;3.07;1.27;;;13.40;99.90;;;;;;5067811;28;20565;-31
2022/12/20 05:41:42;;;;;;;1.67;1.00;;;13.40;99.90;;;;;;5067294;28;20199;-31
2022/12/20 05:44:10;;;;;;;2.13;1.30;;;13.40;99.90;;;;;;5067321;28;20204;-31
2022/12/20 05:46:39;;;;;;;2.13;1.23;;;13.40;99.90;;;;;;5067004;28;20246;-30
2022/12/20 05:49:09;;;;;;;2.80;1.70;;;13.30;99.90;;;;;;5066471;28;20690;-30
2022/12/20 05:51:39;;;;;;;2.47;1.30;;;13.30;99.90;;;;;;5067323;28;20215;-31
2022/12/20 05:54:09;;;;;;;1.90;1.23;;;13.30;99.90;;;;;;5067612;28;20281;-31
2022/12/20 05:56:36;;;;;;;2.13;1.40;;;13.30;99.90;;;;;;5066381;28;20242;-31
2022/12/20 05:59:03;;;;;;;2.93;1.43;;;13.30;99.90;;;;;;5062868;28;20216;-31
2022/12/20 06:01:30;;;;;;;2.87;1.33;;;13.30;99.90;;;;;;5057577;28;20274;-29
2022/12/20 06:04:00;;;;;;;1.83;1.30;;;13.30;99.90;;;;;;5059062;28;20228;-29
2022/12/20 06:06:27;;;;;;;3.63;1.20;;;13.30;99.90;;;;;;5050225;28;20744;-29
2022/12/20 06:08:57;;;;;;;1.77;1.30;;;13.30;99.90;;;;;;5062878;28;20670;-29
2022/12/20 06:11:27;;;;;;;2.90;1.30;;;13.30;99.90;;;;;;5049921;28;20200;-29
2022/12/20 06:13:59;;;;;;;3.17;1.47;;;13.20;99.90;;;;;;5056304;28;20215;-29
2022/12/20 06:16:26;;;;;;;2.17;1.30;;;13.30;99.90;;;;;;5056308;28;20712;-29
2022/12/20 06:18:53;;;;;;;3.23;1.73;;;13.20;99.90;;;;;;5058532;28;20252;-29
2022/12/20 06:21:21;;;;;;;2.83;1.50;;;13.30;99.90;;;;;;5053510;28;20270;-29
2022/12/20 06:23:48;;;;;;;2.27;1.67;;;13.30;99.90;;;;;;5046584;28;20295;-29
2022/12/20 06:26:15;;;;;;;3.73;1.67;;;13.20;99.90;;;;;;5043352;28;20189;-29
2022/12/20 06:28:45;;;;;;;1.93;1.20;;;13.20;99.90;;;;;;5045004;28;20835;-29
2022/12/20 06:31:12;;;;;;;1.83;1.33;;;13.20;99.90;;;;;;5048437;28;20686;-29
2022/12/20 06:33:42;;;;;;;3.63;1.40;;;13.20;99.90;;;;;;5047019;28;20200;-29
2022/12/20 06:36:14;;;;;;;2.47;1.20;;;13.20;99.90;;;;;;5061296;28;20602;-29
2022/12/20 06:38:43;;;;;;;2.20;1.27;;;13.20;99.90;;;;;;5066257;28;20230;-29
2022/12/20 06:41:11;;;;;;;2.43;1.27;;;13.20;99.90;;;;;;5063117;28;20286;-29
2022/12/20 06:43:39;;;;;;;2.37;1.30;;;13.20;99.90;;;;;;5050570;28;20623;-29
2022/12/20 06:46:08;;;;;;;2.50;1.37;;;13.10;99.90;;;;;;5057982;28;20219;-29
2022/12/20 06:48:35;;;;;;;3.70;1.40;;;13.20;99.90;;;;;;5065807;28;20207;-29
2022/12/20 06:51:05;;;;;;;2.23;1.50;;;13.20;99.90;;;;;;5062736;28;20326;-29
2022/12/20 06:53:32;;;;;;;4.33;1.30;;;13.20;99.90;;;;;;5066345;28;20313;-30
2022/12/20 06:55:59;;;;;;;1.37;1.10;;;13.20;99.90;;;;;;5058461;28;21325;-31
2022/12/20 06:58:31;;;;;;;3.37;1.50;;;13.20;99.90;;;;;;5050166;28;20203;-31
2022/12/20 07:00:59;;;;;;;2.33;1.57;;;13.20;99.90;;;;;;5047403;28;20208;-29
2022/12/20 07:03:26;;;;;;;8.73;1.63;;;13.20;99.90;;;;;;5059454;28;20660;-29
2022/12/20 07:05:54;;;;;;;4.77;1.50;;;13.30;99.90;;;;;;5065653;28;20372;-29
2022/12/20 07:08:26;;;;;;;3.70;1.63;;;13.20;99.90;;;;;;5060903;28;20203;-29
2022/12/20 07:10:53;;;;;;;2.43;1.40;;;13.30;99.90;;;;;;5049556;28;20298;-29
2022/12/20 07:13:21;;;;;;;2.23;1.40;;;13.30;99.90;;;;;;5056712;28;20223;-29
2022/12/20 07:15:48;;;;;;;5.07;1.60;;;13.30;99.90;;;;;;5045859;28;20318;-29
2022/12/20 07:18:17;;;;;;;3.97;1.30;;;13.30;99.90;;;;;;5045936;28;20727;-29
2022/12/20 07:20:47;;;;;;;6.00;1.50;;;13.30;99.90;;;;;;5045165;28;20312;-29
2022/12/20 07:23:14;;;;;;;2.43;1.20;;;13.30;99.90;;;;;;5054043;28;20708;-29
2022/12/20 07:25:53;;;;;;;3.57;1.67;;;13.40;99.90;;;;;;5064514;28;20216;-29
2022/12/20 07:28:23;;;;;;;4.93;1.50;;;13.40;99.90;;;;;;5063148;28;20210;-29
2022/12/20 07:30:52;;;;;;;3.90;1.20;;;13.40;99.90;;;;;;5051401;28;20203;-29
2022/12/20 07:33:22;;;;;;;3.00;1.30;;;13.40;99.90;;;;;;5054693;28;21159;-29
2022/12/20 07:35:51;;;;;;;2.10;1.30;;;13.40;99.90;;;;;;5050935;28;20727;-29
2022/12/20 07:38:38;;;;;;;3.83;1.60;;;13.40;99.90;;;;;;5054651;28;20222;-29
2022/12/20 07:41:17;;;;;;;5.63;1.87;;;13.50;99.90;;;;;;5057378;28;20242;-30
2022/12/20 07:43:44;;;;;;;3.50;1.57;;;13.50;99.90;;;;;;5035236;28;20203;-29
2022/12/20 07:46:17;;;;;;;3.47;1.50;;;13.40;99.90;;;;;;5057495;28;20291;-29
2022/12/20 07:48:47;;;;;;;4.37;1.50;;;13.50;99.90;;;;;;5050375;28;20254;-29
2022/12/20 07:51:25;;;;;;;6.97;1.67;;;13.50;99.90;;;;;;5056985;28;20243;-29
2022/12/20 07:54:04;;;;;;;5.57;1.93;;;13.50;99.90;;;;;;5051665;28;20231;-29
2022/12/20 07:56:40;;;;;;;3.63;1.87;;;13.50;99.90;;;;;;5052364;28;20269;-29
2022/12/20 07:59:10;;;;;;;2.13;1.43;;;13.50;99.90;;;;;;5058679;28;20549;-29
2022/12/20 08:01:38;;;;;;;3.53;1.70;;;13.60;99.90;;;;;;5057268;28;20265;-29
2022/12/20 08:04:18;;;;;;;4.97;1.80;;;13.50;99.90;;;;;;5051834;28;20852;-29
2022/12/20 08:06:49;;;;;;;4.23;1.47;;;13.50;99.90;;;;;;5061326;28;20203;-29
2022/12/20 08:09:19;;;;;;;4.07;1.73;;;13.50;99.90;;;;;;5050175;28;20212;-29
2022/12/20 08:11:47;;;;;;;4.57;1.73;;;13.50;99.90;;;;;;5052213;28;20582;-29
2022/12/20 08:14:17;;;;;;;4.73;1.70;;;13.50;99.90;;;;;;5051471;28;20306;-28
2022/12/20 08:16:46;;;;;;;3.13;1.60;;;13.50;99.90;;;;;;5056032;28;20629;-29
2022/12/20 08:19:16;;;;;;;3.10;1.50;;;13.50;99.90;;;;;;5049870;28;20204;-29
2022/12/20 08:21:43;;;;;;;2.77;1.57;;;13.50;99.90;;;;;;5051739;28;20790;-29
2022/12/20 08:24:12;;;;;;;3.13;1.60;;;13.50;99.90;;;;;;5052155;28;20227;-29
2022/12/20 08:26:43;;;;;;;4.17;1.77;;;13.50;99.90;;;;;;5053997;28;20257;-29
2022/12/20 08:29:12;;;;;;;2.33;1.50;;;13.60;99.90;;;;;;5059303;28;20206;-29
2022/12/20 08:31:43;;;;;;;2.67;1.60;;;13.60;99.90;;;;;;5056353;28;20662;-29
2022/12/20 08:34:19;;;;;;;2.63;1.33;;;13.60;99.90;;;;;;5061951;28;20236;-29
2022/12/20 08:36:48;;;;;;;2.27;1.30;;;13.60;99.90;;;;;;5052107;28;20220;-30
2022/12/20 08:39:15;;;;;;;5.57;1.63;;;13.60;99.90;;;;;;5062235;28;20205;-31
2022/12/20 08:41:45;;;;;;;4.77;1.80;;;13.50;99.90;;;;;;5059385;28;20208;-31
2022/12/20 08:44:16;;;;;;;5.00;1.60;;;13.60;99.90;;;;;;5050000;28;20690;-31
2022/12/20 08:46:44;;;;;;;1.40;1.30;;;13.60;99.90;;;;;;5045370;28;20212;-31
2022/12/20 08:49:16;;;;;;;3.80;1.73;;;13.60;99.90;;;;;;5063286;28;20239;-31
2022/12/20 08:51:43;;;;;;;3.83;1.70;;;13.60;99.90;;;;;;5061607;28;20204;-31
2022/12/20 08:54:10;;;;;;;3.53;1.70;;;13.60;99.90;;;;;;5050065;28;20196;-31
2022/12/20 08:56:40;;;;;;;2.20;1.70;;;13.60;99.90;;;;;;5061770;28;20238;-31
2022/12/20 08:59:07;;;;;;;2.87;1.80;;;13.60;99.90;;;;;;5067959;28;20206;-31
2022/12/20 09:01:36;;;;;;;3.17;1.53;;;13.60;99.90;;;;;;5066511;28;20208;-31
2022/12/20 09:04:06;;;;;;;3.40;1.97;;;13.60;99.90;;;;;;5067346;28;20624;-31
2022/12/20 09:06:34;;;;;;;3.53;1.67;;;13.60;99.90;;;;;;5063394;28;20444;-29
2022/12/20 09:09:02;;;;;;;3.57;1.60;;;13.60;99.90;;;;;;5067164;28;20202;-30
2022/12/20 09:11:32;;;;;;;3.40;1.70;;;13.60;99.90;;;;;;5060013;28;20195;-30
2022/12/20 09:14:00;;;;;;;2.03;1.67;;;13.60;99.90;;;;;;5061897;28;20318;-30
2022/12/20 09:16:32;;;;;;;4.33;1.63;;;13.60;99.90;;;;;;5065412;28;20299;-30
2022/12/20 09:19:03;;;;;;;2.57;1.50;;;13.60;99.90;;;;;;5056669;28;20227;-30
2022/12/20 09:21:33;;;;;;;3.77;1.77;;;13.70;99.90;;;;;;5066741;28;20196;-29
2022/12/20 09:24:01;;;;;;;2.97;1.30;;;13.70;99.90;;;;;;5064028;28;20295;-30
2022/12/20 09:26:29;;;;;;;4.37;1.87;;;13.80;99.90;;;;;;5052874;28;20265;-30
2022/12/20 09:29:00;;;;;;;3.80;1.50;;;13.80;99.90;;;;;;5061260;28;20239;-30
2022/12/20 09:31:30;;;;;;;2.77;1.53;;;13.80;99.90;;;;;;5057030;28;20223;-30
2022/12/20 09:33:58;;;;;;;5.63;1.73;;;13.80;99.90;;;;;;5062295;28;20209;-30
2022/12/20 09:36:28;;;;;;;3.53;1.77;;;13.80;99.90;;;;;;5054813;28;20277;-30
2022/12/20 09:38:55;;;;;;;2.50;1.57;;;13.90;99.90;;;;;;5047206;28;20211;-30
2022/12/20 09:41:42;;;;;;;4.57;1.43;;;13.90;99.90;;;;;;5059437;28;20207;-30
2022/12/20 09:44:31;;;;;;;5.10;1.70;;;13.90;99.90;;;;;;5045270;28;20200;-30
2022/12/20 09:47:04;;;;;;;2.67;1.37;;;13.90;99.90;;;;;;5052613;28;20261;-30
2022/12/20 09:49:41;;;;;;;3.03;1.50;;;14.00;99.90;;;;;;5056350;28;20240;-30
2022/12/20 09:52:38;;;;;;;2.40;1.40;;;14.00;99.90;;;;;;5050428;28;20258;-30
2022/12/20 09:55:21;;;;;;;3.87;1.60;;;14.00;99.90;;;;;;5047290;28;20487;-28
2022/12/20 09:58:16;;;;;;;4.87;1.70;;;14.00;99.90;;;;;;5061398;28;20637;-29
2022/12/20 10:00:46;;;;;;;7.00;2.33;;;14.00;99.90;;;;;;5052238;28;20287;-29
2022/12/20 10:03:38;;;;;;;4.57;1.93;;;14.00;99.90;;;;;;5054588;28;20558;-29
2022/12/20 10:06:34;;;;;;;4.07;1.60;;;14.00;99.90;;;;;;5045793;28;20262;-29
2022/12/20 10:09:10;;;;;;;3.90;1.83;;;14.00;99.90;;;;;;5060529;28;20281;-29
2022/12/20 10:11:55;;;;;;;3.93;1.90;;;14.00;99.90;;;;;;5056858;28;20690;-29
2022/12/20 10:14:59;;;;;;;3.67;1.90;;;14.00;99.90;;;;;;5061621;28;20203;-29
2022/12/20 10:17:47;;;;;;;3.80;1.70;;;14.00;99.90;;;;;;5063728;28;20256;-29
2022/12/20 10:20:20;;;;;;;4.80;2.07;;;14.00;99.90;;;;;;5063774;28;20229;-29
2022/12/20 10:23:14;;;;;;;3.13;1.70;;;14.00;99.90;;;;;;5052494;28;20671;-29
2022/12/20 10:25:44;;;;;;;2.00;1.57;;;14.00;99.90;;;;;;5064933;28;20425;-29
2022/12/20 10:28:15;;;;;;;4.47;1.63;;;14.00;99.90;;;;;;5047553;28;20208;-30
2022/12/20 10:30:44;;;;;;;4.07;1.80;;;14.00;99.90;;;;;;5081299;28;20738;-29
2022/12/20 10:33:24;;;;;;;2.53;1.80;;;14.00;99.90;;;;;;5060293;28;20203;-29
2022/12/20 10:36:13;;;;;;;4.07;1.80;;;14.00;99.90;;;;;;5056967;28;20254;-29
2022/12/20 10:38:49;;;;;;;3.77;1.70;;;14.00;99.90;;;;;;5055555;28;20199;-29
2022/12/20 10:41:23;;;;;;;4.67;1.90;;;14.00;99.90;;;;;;5055550;28;20624;-29
2022/12/20 10:44:02;;;;;;;3.60;1.93;;;14.00;99.90;;;;;;5048242;28;20746;-29
2022/12/20 10:46:40;;;;;;;5.17;2.03;;;14.00;99.90;;;;;;5063422;28;20203;-29
2022/12/20 10:49:27;;;;;;;4.83;1.77;;;14.00;99.90;;;;;;5065290;28;20222;-29
2022/12/20 10:52:00;;;;;;;3.93;1.77;;;14.00;99.90;;;;;;5052567;28;20220;-29
2022/12/20 10:54:32;;;;;;;2.87;1.60;;;14.00;99.90;;;;;;5056312;28;20214;-29
2022/12/20 10:57:02;;;;;;;3.63;1.70;;;14.00;99.90;;;;;;5062058;28;20587;-29
2022/12/20 10:59:36;;;;;;;5.40;2.00;;;14.00;99.90;;;;;;5056362;28;20882;-29
2022/12/20 11:02:27;;;;;;;3.53;2.00;;;14.00;99.90;;;;;;5064057;28;20549;-29
2022/12/20 11:05:09;;;;;;;2.53;1.43;;;14.00;99.90;;;;;;5055475;28;20286;-29
2022/12/20 11:07:50;;;;;;;5.93;2.03;;;14.00;99.90;;;;;;5049505;28;20203;-29
2022/12/20 11:10:42;;;;;;;4.13;1.83;;;14.00;99.90;;;;;;5058531;28;20250;-29
2022/12/20 11:13:26;;;;;;;4.90;2.10;;;14.00;99.90;;;;;;5054466;28;20756;-29
2022/12/20 11:16:00;;;;;;;2.93;1.70;;;14.00;99.90;;;;;;5050061;28;20239;-29
2022/12/20 11:19:05;;;;;;;3.70;2.00;;;14.00;99.90;;;;;;5065092;28;20314;-29
2022/12/20 11:21:40;;;;;;;4.30;1.70;;;14.00;99.90;;;;;;5050225;28;20199;-29
2022/12/20 11:24:30;;;;;;;4.43;2.10;;;14.00;99.90;;;;;;5055594;28;20297;-29
2022/12/20 11:27:17;;;;;;;2.57;1.60;;;14.00;99.90;;;;;;5059122;28;20208;-29
2022/12/20 11:30:14;;;;;;;3.97;1.80;;;14.00;99.90;;;;;;5053326;28;20682;-29
2022/12/20 11:33:17;;;;;;;3.27;1.90;;;14.00;99.90;;;;;;5052730;28;20285;-29
2022/12/20 11:35:59;;;;;;;4.63;2.10;;;14.00;99.90;;;;;;5055462;28;20700;-29
2022/12/20 11:38:57;;;;;;;5.67;2.17;;;14.00;99.90;;;;;;5051594;28;20682;-31
2022/12/20 11:42:03;;;;;;;3.70;1.90;;;14.00;99.90;;;;;;5056505;28;20200;-29
2022/12/20 11:44:46;;;;;;;4.80;2.47;;;14.00;99.90;;;;;;5056778;28;20692;-29
2022/12/20 11:47:48;;;;;;;2.80;1.93;;;14.00;99.90;;;;;;5058324;28;20219;-28
2022/12/20 11:50:27;;;;;;;5.00;2.00;;;14.00;99.90;;;;;;5055732;28;20263;-29
2022/12/20 11:53:07;;;;;;;3.17;2.03;;;14.00;99.90;;;;;;5060654;28;20286;-28
2022/12/20 11:55:42;;;;;;;3.00;2.07;;;14.00;99.90;;;;;;5059389;28;20230;-29
2022/12/20 11:58:20;;;;;;;2.67;1.90;;;14.00;99.90;;;;;;5060042;28;20205;-29
2022/12/20 12:01:12;;;;;;;5.37;2.13;;;14.00;99.90;;;;;;5058748;28;20201;-29
2022/12/20 12:03:43;;;;;;;4.07;1.80;;;14.00;99.90;;;;;;5057154;28;20215;-29
2022/12/20 12:06:24;;;;;;;3.50;1.87;;;14.00;99.90;;;;;;5067900;28;20203;-28
2022/12/20 12:09:05;;;;;;;3.63;2.03;;;14.00;99.90;;;;;;5079023;28;20222;-29
2022/12/20 12:11:40;;;;;;;6.67;2.27;;;13.90;99.90;;;;;;5058788;28;20204;-28
2022/12/20 12:14:59;;;;;;;3.53;1.90;;;14.00;99.90;;;;;;5045212;28;20211;-28
2022/12/20 12:17:37;;;;;;;4.33;2.10;;;14.00;99.90;;;;;;5042782;28;20228;-28
2022/12/20 12:20:46;;;;;;;4.70;2.20;;;13.90;99.90;;;;;;5061233;28;20226;-29
2022/12/20 12:23:29;;;;;;;4.13;2.27;;;14.00;99.90;;;;;;5059450;28;20214;-28
2022/12/20 12:26:04;;;;;;;3.63;2.10;;;13.90;99.90;;;;;;5051269;28;20231;-28
2022/12/20 12:28:32;;;;;;;5.07;2.30;;;13.90;99.90;;;;;;5063593;28;20733;-28
2022/12/20 12:31:09;;;;;;;5.10;2.07;;;13.90;99.90;;;;;;5054635;28;20275;-28
2022/12/20 12:33:49;;;;;;;4.40;2.33;;;13.90;99.90;;;;;;5058819;28;20592;-29
2022/12/20 12:36:47;;;;;;;5.00;2.10;;;13.80;99.90;;;;;;5054681;28;20211;-28
2022/12/20 12:39:25;;;;;;;2.97;1.80;;;13.80;99.90;;;;;;5050955;28;20302;-29
2022/12/20 12:42:11;;;;;;;2.90;1.83;;;13.80;99.90;;;;;;5057993;28;20686;-28
2022/12/20 12:45:02;;;;;;;3.07;2.00;;;13.80;99.90;;;;;;5064254;28;20688;-29
2022/12/20 12:47:53;;;;;;;5.87;2.00;;;13.80;99.90;;;;;;5064042;28;20593;-28
2022/12/20 12:50:44;;;;;;;5.50;2.23;;;13.80;99.90;;;;;;5065383;28;20282;-29
2022/12/20 12:53:21;;;;;;;3.60;1.87;;;13.80;99.90;;;;;;5064313;28;20558;-28
2022/12/20 12:55:54;;;;;;;4.00;2.07;;;13.70;99.90;;;;;;5062306;28;20221;-28
2022/12/20 12:58:40;;;;;;;6.67;1.90;;;13.70;99.90;;;;;;5050392;28;20205;-28
2022/12/20 13:01:55;;;;;;;2.73;1.77;;;13.70;99.90;;;;;;5047317;28;20645;-28
2022/12/20 13:04:27;;;;;;;3.07;2.13;;;13.70;99.90;;;;;;5049417;28;20204;-28
2022/12/20 13:06:59;;;;;;;3.03;1.70;;;13.60;99.90;;;;;;5046549;28;20706;-28
2022/12/20 13:09:29;;;;;;;3.40;2.10;;;13.60;99.90;;;;;;5063207;28;20291;-28
2022/12/20 13:11:57;;;;;;;2.67;1.90;;;13.60;99.90;;;;;;5061613;28;20738;-28
2022/12/20 13:14:30;;;;;;;3.87;2.00;;;13.60;99.90;;;;;;5059961;28;20254;-28
2022/12/20 13:17:03;;;;;;;3.43;1.70;;;13.60;99.90;;;;;;5045862;28;20220;-28
2022/12/20 13:19:53;;;;;;;4.40;2.00;;;13.60;99.90;;;;;;5047599;28;20204;-28
2022/12/20 13:22:24;;;;;;;3.73;1.93;;;13.50;99.90;;;;;;5052751;28;20196;-28
2022/12/20 13:24:58;;;;;;;3.13;1.50;;;13.50;99.90;;;;;;5059832;28;20578;-28
2022/12/20 13:27:39;;;;;;;4.90;1.60;;;13.50;99.90;;;;;;5051183;28;20982;-29
2022/12/20 13:30:06;;;;;;;3.90;2.00;;;13.50;99.90;;;;;;5064687;28;20207;-28
2022/12/20 13:32:48;;;;;;;4.83;2.20;;;13.50;99.90;;;;;;5057251;28;20224;-28